TimeEDT,TemperatureF,Dew PointF,Humidity,Sea Level PressureIn,VisibilityMPH,Wind Direction,Wind SpeedMPH,Gust SpeedMPH,PrecipitationIn,Events,Conditions,WindDirDegrees,DateUTC
12:54 AM,57.9,48.9,72,29.99,10.0,SSW,3.5,-,N/A,,Clear,210,2013-09-15 04:54:00
1:54 AM,59.0,51.1,75,29.99,10.0,SW,5.8,-,N/A,,Clear,220,2013-09-15 05:54:00
2:54 AM,59.0,52.0,78,29.99,10.0,WSW,8.1,-,N/A,,Clear,250,2013-09-15 06:54:00
3:54 AM,60.1,53.1,78,29.98,10.0,WSW,5.8,-,N/A,,Partly Cloudy,250,2013-09-15 07:54:00
4:54 AM,60.1,53.1,78,29.99,10.0,Calm,Calm,-,N/A,,Overcast,0,2013-09-15 08:54:00
5:54 AM,59.0,54.0,83,30.00,10.0,WSW,10.4,-,0.00,Rain,Light Rain,240,2013-09-15 09:54:00
6:54 AM,57.9,55.9,93,30.00,10.0,WSW,5.8,-,0.01,Rain,Light Rain,240,2013-09-15 10:54:00
7:54 AM,57.9,55.0,90,30.00,10.0,Calm,Calm,-,0.00,,Overcast,0,2013-09-15 11:54:00
8:54 AM,57.0,55.0,93,30.01,10.0,South,3.5,-,0.00,,Overcast,190,2013-09-15 12:54:00
9:54 AM,57.9,55.0,90,30.02,10.0,Calm,Calm,-,0.01,Rain,Light Rain,0,2013-09-15 13:54:00
10:54 AM,59.0,55.9,90,30.02,10.0,NW,3.5,-,0.01,Rain,Light Rain,320,2013-09-15 14:54:00
11:54 AM,59.0,55.9,90,30.03,9.0,Calm,Calm,-,0.03,Rain,Light Rain,0,2013-09-15 15:54:00
12:08 PM,59.0,55.4,88,30.03,8.0,Calm,Calm,-,0.01,Rain,Light Rain,0,2013-09-15 16:08:00
12:22 PM,59.0,55.4,88,30.03,6.0,NNW,3.5,-,0.03,Rain,Light Rain,340,2013-09-15 16:22:00
12:45 PM,57.2,55.4,94,30.03,5.0,West,3.5,-,0.07,Rain,Rain,260,2013-09-15 16:45:00
12:54 PM,57.9,55.9,93,30.04,4.0,Calm,Calm,-,0.09,Rain,Rain,0,2013-09-15 16:54:00
1:54 PM,59.0,55.0,87,30.04,10.0,Calm,Calm,-,0.01,,Overcast,0,2013-09-15 17:54:00
2:23 PM,59.0,55.4,88,30.03,10.0,Calm,Calm,-,N/A,,Overcast,0,2013-09-15 18:23:00
2:54 PM,60.1,55.0,83,30.03,10.0,SW,3.5,-,N/A,,Mostly Cloudy,220,2013-09-15 18:54:00
3:23 PM,59.0,55.4,88,30.03,10.0,WSW,3.5,-,0.01,,Overcast,240,2013-09-15 19:23:00
3:38 PM,59.0,55.4,88,30.02,10.0,Variable,3.5,-,0.01,,Overcast,0,2013-09-15 19:38:00
3:54 PM,60.1,55.9,86,30.02,10.0,WSW,3.5,-,0.01,,Overcast,240,2013-09-15 19:54:00
4:16 PM,60.8,55.4,82,30.02,10.0,WNW,4.6,-,N/A,,Overcast,290,2013-09-15 20:16:00
4:49 PM,59.0,53.6,82,30.02,10.0,West,5.8,-,N/A,,Overcast,260,2013-09-15 20:49:00
4:54 PM,60.1,55.0,83,30.03,10.0,West,4.6,-,N/A,,Overcast,270,2013-09-15 20:54:00
5:43 PM,59.0,55.4,88,30.04,10.0,NNW,16.1,20.7,0.00,Rain,Light Rain,330,2013-09-15 21:43:00
5:54 PM,57.9,54.0,87,30.05,10.0,NNW,17.3,-,0.00,,Overcast,330,2013-09-15 21:54:00
6:54 PM,55.0,52.0,89,30.08,10.0,NNW,12.7,-,0.00,,Overcast,330,2013-09-15 22:54:00
7:54 PM,53.1,48.9,86,30.12,10.0,North,12.7,-,N/A,,Overcast,350,2013-09-15 23:54:00
8:54 PM,52.0,46.9,83,30.16,10.0,North,11.5,-,N/A,,Overcast,350,2013-09-16 00:54:00
9:54 PM,52.0,45.0,77,30.18,10.0,North,13.8,-,N/A,,Overcast,10,2013-09-16 01:54:00
10:54 PM,51.1,45.0,80,30.20,10.0,North,9.2,-,N/A,,Overcast,10,2013-09-16 02:54:00
11:54 PM,48.9,45.0,86,30.22,10.0,North,6.9,-,0.00,,Overcast,360,2013-09-16 03:54:00